createdAt,value
2022-08-11T00:02:23.985Z,3.50
2022-08-11T00:07:19.023Z,4.25
2022-08-11T00:09:46.648Z,4.32
2022-08-11T00:12:16.805Z,3.83
2022-08-11T00:14:44.538Z,4.60
2022-08-11T00:17:14.819Z,3.92
2022-08-11T00:20:13.977Z,4.32
2022-08-11T00:22:33.229Z,4.60
2022-08-11T00:25:08.929Z,4.20
2022-08-11T00:27:38.817Z,4.53
2022-08-11T00:30:06.945Z,4.45
2022-08-11T00:32:35.378Z,4.20
2022-08-11T00:35:51.762Z,6.05
2022-08-11T00:37:52.879Z,4.47
2022-08-11T00:40:27.368Z,4.20
2022-08-11T00:43:10.697Z,4.97
2022-08-11T00:46:07.896Z,4.32
2022-08-11T00:48:45.549Z,4.18
2022-08-11T00:51:24.945Z,4.35
2022-08-11T00:54:02.941Z,4.15
2022-08-11T00:56:59.390Z,4.43
2022-08-11T01:00:03.784Z,4.47
2022-08-11T01:02:46.891Z,4.78
2022-08-11T01:05:51.702Z,4.75
2022-08-11T01:08:57.876Z,5.53
2022-08-11T01:11:55.445Z,5.28
2022-08-11T01:14:52.948Z,5.50
2022-08-11T01:18:11.094Z,5.53
2022-08-11T01:21:32.815Z,5.40
2022-08-11T01:24:41.482Z,5.53
2022-08-11T01:27:28.111Z,5.03
2022-08-11T01:30:17.776Z,6.13
2022-08-11T01:33:25.612Z,7.00
2022-08-11T01:36:25.887Z,5.38
2022-08-11T01:39:32.410Z,5.85
2022-08-11T01:42:50.550Z,5.32
2022-08-11T01:45:32.196Z,6.15
2022-08-11T01:48:06.841Z,6.05
2022-08-11T01:51:08.700Z,6.35
2022-08-11T01:53:52.924Z,6.53
2022-08-11T01:56:46.972Z,5.90
2022-08-11T01:59:21.189Z,6.25
2022-08-11T02:02:09.100Z,5.53
2022-08-11T02:04:42.480Z,5.72
2022-08-11T02:07:17.527Z,5.70
2022-08-11T02:09:55.728Z,6.55
2022-08-11T02:12:42.294Z,6.18
2022-08-11T02:15:27.165Z,6.10
2022-08-11T02:18:03.991Z,6.55
2022-08-11T02:20:59.620Z,6.03
2022-08-11T02:24:05.014Z,4.90
2022-08-11T02:26:36.486Z,5.40
2022-08-11T02:29:15.738Z,5.35
2022-08-11T02:32:25.485Z,5.57
2022-08-11T02:35:05.134Z,5.15
2022-08-11T02:37:45.152Z,5.63
2022-08-11T02:40:22.927Z,5.28
2022-08-11T02:42:58.378Z,5.40
2022-08-11T02:45:54.635Z,6.18
2022-08-11T02:48:51.895Z,5.70
2022-08-11T02:51:30.020Z,5.55
2022-08-11T02:54:07.058Z,4.97
2022-08-11T02:56:45.274Z,5.03
2022-08-11T02:59:42.584Z,6.03
2022-08-11T03:02:20.587Z,5.60
2022-08-11T03:05:01.647Z,4.68
2022-08-11T03:07:35.084Z,5.07
2022-08-11T03:10:10.214Z,5.43
2022-08-11T03:13:12.591Z,5.30
2022-08-11T03:16:24.175Z,4.55
2022-08-11T03:19:03.458Z,4.75
2022-08-11T03:22:01.776Z,5.30
2022-08-11T03:24:29.441Z,5.40
2022-08-11T03:27:06.908Z,5.93
2022-08-11T03:29:40.851Z,6.00
2022-08-11T03:34:43.986Z,5.57
2022-08-11T03:37:51.785Z,5.35
2022-08-11T03:42:02.942Z,5.53
2022-08-11T03:44:07.228Z,5.10
2022-08-11T03:46:50.734Z,6.05
2022-08-11T03:49:30.993Z,5.55
2022-08-11T03:52:13.233Z,6.18
2022-08-11T03:54:50.798Z,6.18
2022-08-11T03:57:55.889Z,6.07
2022-08-11T04:00:38.926Z,5.93
2022-08-11T04:03:46.957Z,6.18
2022-08-11T04:06:55.255Z,6.15
2022-08-11T04:09:59.442Z,6.60
2022-08-11T04:12:57.620Z,6.03
2022-08-11T04:16:00.929Z,5.70
2022-08-11T04:19:18.504Z,6.38
2022-08-11T04:22:25.196Z,6.00
2022-08-11T04:25:08.979Z,5.85
2022-08-11T04:27:53.589Z,6.88
2022-08-11T04:30:28.356Z,6.65
2022-08-11T04:33:47.393Z,6.32
2022-08-11T04:36:57.872Z,6.43
2022-08-11T04:39:39.431Z,5.18
2022-08-11T04:43:00.150Z,6.07
2022-08-11T04:45:45.051Z,7.68
2022-08-11T04:48:53.390Z,7.82
2022-08-11T04:52:15.037Z,7.18
2022-08-11T04:55:16.897Z,7.03
2022-08-11T04:58:13.196Z,6.25
2022-08-11T05:01:11.448Z,7.57
2022-08-11T05:03:54.057Z,9.30
2022-08-11T05:06:55.811Z,7.68
2022-08-11T05:09:34.623Z,8.15
2022-08-11T05:12:30.139Z,8.32
2022-08-11T05:15:18.009Z,8.18
2022-08-11T05:18:19.359Z,9.80
2022-08-11T05:21:09.339Z,7.55
2022-08-11T05:23:58.948Z,7.75
2022-08-11T05:26:49.320Z,7.07
2022-08-11T05:30:01.965Z,6.88
2022-08-11T05:32:58.053Z,7.13
2022-08-11T05:36:02.246Z,6.55
2022-08-11T05:38:44.592Z,6.78
2022-08-11T05:41:30.972Z,7.68
2022-08-11T05:44:21.556Z,7.28
2022-08-11T05:47:08.225Z,7.43
2022-08-11T05:49:55.298Z,7.75
2022-08-11T05:52:49.135Z,7.28
2022-08-11T05:56:01.850Z,4.88
2022-08-11T05:58:38.259Z,4.72
2022-08-11T06:01:09.701Z,4.68
2022-08-11T06:03:57.971Z,4.50
2022-08-11T06:06:27.231Z,4.35
2022-08-11T06:08:57.965Z,3.90
2022-08-11T06:11:44.326Z,5.45
2022-08-11T06:14:13.033Z,5.43
2022-08-11T06:16:41.901Z,4.60
2022-08-11T06:19:09.305Z,4.03
2022-08-11T06:21:36.887Z,4.32
2022-08-11T06:24:11.946Z,4.53
2022-08-11T06:27:01.680Z,4.43
2022-08-11T06:29:37.872Z,5.40
2022-08-11T06:32:15.719Z,4.88
2022-08-11T06:35:10.438Z,4.35
2022-08-11T06:37:48.681Z,4.40
2022-08-11T06:40:34.571Z,4.40
2022-08-11T06:43:10.184Z,5.32
2022-08-11T06:45:43.241Z,4.43
2022-08-11T06:48:17.459Z,3.67
2022-08-11T06:51:08.249Z,5.85
2022-08-11T06:53:39.181Z,5.35
2022-08-11T06:56:27.224Z,5.53
2022-08-11T06:59:13.033Z,5.95
2022-08-11T07:01:49.638Z,4.28
2022-08-11T07:04:29.253Z,6.38
2022-08-11T07:07:42.524Z,6.70
2022-08-11T07:10:52.536Z,6.30
2022-08-11T07:13:45.427Z,6.03
2022-08-11T07:16:17.765Z,6.30
2022-08-11T07:19:10.435Z,5.60
2022-08-11T07:22:04.908Z,7.03
2022-08-11T07:25:02.316Z,5.90
2022-08-11T07:27:54.877Z,5.68
2022-08-11T07:30:25.363Z,5.82
2022-08-11T07:32:55.182Z,5.50
2022-08-11T07:35:27.963Z,6.32
2022-08-11T07:38:02.154Z,4.70
2022-08-11T07:40:30.764Z,4.72
2022-08-11T07:43:00.465Z,5.30
2022-08-11T07:45:47.970Z,5.78
2022-08-11T07:48:34.528Z,5.50
2022-08-11T07:51:20.953Z,5.10
2022-08-11T07:53:58.647Z,5.43
2022-08-11T07:56:55.328Z,5.72
2022-08-11T08:00:04.258Z,5.65
2022-08-11T08:02:49.800Z,5.53
2022-08-11T08:05:36.352Z,4.97
2022-08-11T08:08:22.965Z,5.05
2022-08-11T08:11:08.602Z,4.53
2022-08-11T08:13:55.641Z,4.85
2022-08-11T08:16:41.110Z,4.25
2022-08-11T08:19:12.797Z,4.47
2022-08-11T08:21:39.870Z,4.20
2022-08-11T08:24:12.729Z,4.28
2022-08-11T08:26:58.469Z,4.00
2022-08-11T08:29:44.824Z,3.80
2022-08-11T08:32:13.820Z,3.47
2022-08-11T08:34:42.619Z,3.72
2022-08-11T08:37:16.236Z,3.72
2022-08-11T08:39:58.607Z,3.35
2022-08-11T08:42:28.040Z,4.07
2022-08-11T08:44:59.327Z,3.35
2022-08-11T08:47:37.589Z,3.45
2022-08-11T08:50:16.845Z,3.38
2022-08-11T08:52:50.865Z,2.78
2022-08-11T08:55:20.037Z,3.10
2022-08-11T08:57:49.591Z,3.88
2022-08-11T09:00:22.322Z,3.63
2022-08-11T09:02:51.491Z,3.45
2022-08-11T09:05:20.083Z,3.45
2022-08-11T09:07:51.368Z,3.25
2022-08-11T09:10:20.437Z,3.45
2022-08-11T09:12:48.950Z,3.50
2022-08-11T09:15:19.947Z,3.25
2022-08-11T09:17:48.852Z,3.53
2022-08-11T09:20:21.560Z,3.83
2022-08-11T09:26:17.779Z,3.70
2022-08-11T09:28:47.466Z,4.07
2022-08-11T09:31:16.486Z,3.17
2022-08-11T09:33:44.739Z,3.63
2022-08-11T09:36:32.879Z,3.20
2022-08-11T09:39:21.929Z,3.33
2022-08-11T09:42:01.550Z,3.92
2022-08-11T09:44:48.931Z,3.92
2022-08-11T09:47:23.013Z,4.15
2022-08-11T09:49:53.244Z,4.47
2022-08-11T09:52:23.990Z,4.28
2022-08-11T09:54:52.535Z,4.28
2022-08-11T09:57:38.982Z,4.93
2022-08-11T10:00:13.459Z,4.20
2022-08-11T10:02:44.575Z,4.40
2022-08-11T10:05:33.345Z,4.65
2022-08-11T10:08:02.338Z,3.85
2022-08-11T10:10:34.336Z,3.75
2022-08-11T10:14:31.122Z,3.47
2022-08-11T10:16:00.072Z,3.70
2022-08-11T10:18:52.418Z,4.00
2022-08-11T10:21:28.312Z,4.10
2022-08-11T10:24:18.857Z,4.32
2022-08-11T10:26:57.198Z,3.95
2022-08-11T10:29:49.913Z,3.92
2022-08-11T10:32:57.910Z,3.83
2022-08-11T10:35:28.545Z,3.17
2022-08-11T10:38:06.435Z,3.28
2022-08-11T10:40:38.982Z,3.17
2022-08-11T10:43:10.627Z,3.50
2022-08-11T10:45:57.711Z,3.25
2022-08-11T10:48:26.806Z,3.13
2022-08-11T10:51:13.468Z,2.70
2022-08-11T10:54:01.762Z,2.67
2022-08-11T10:56:53.922Z,2.72
2022-08-11T10:59:22.336Z,2.67
2022-08-11T11:01:51.941Z,2.53
2022-08-11T11:04:23.058Z,2.47
2022-08-11T11:06:58.136Z,3.05
2022-08-11T11:09:32.625Z,2.72
2022-08-11T11:12:25.348Z,2.45
2022-08-11T11:15:17.335Z,2.57
2022-08-11T11:18:01.396Z,2.87
2022-08-11T11:20:36.918Z,3.50
2022-08-11T11:23:09.651Z,2.72
2022-08-11T11:26:07.005Z,3.13
2022-08-11T11:28:53.575Z,2.35
2022-08-11T11:31:34.113Z,2.25
2022-08-11T11:34:15.279Z,2.83
2022-08-11T11:36:47.579Z,2.78
2022-08-11T11:39:19.023Z,4.25
2022-08-11T11:41:46.852Z,2.53
2022-08-11T11:44:15.775Z,3.25
2022-08-11T11:46:45.481Z,3.33
2022-08-11T11:49:17.369Z,2.78
2022-08-11T11:51:50.063Z,3.07
2022-08-11T11:54:19.755Z,3.10
2022-08-11T11:56:46.908Z,3.20
2022-08-11T11:59:33.924Z,3.03
2022-08-11T12:02:01.585Z,2.58
2022-08-11T12:04:41.598Z,3.40
2022-08-11T12:07:28.219Z,3.60
2022-08-11T12:09:56.290Z,3.83
2022-08-11T12:12:42.348Z,3.20
2022-08-11T12:15:12.489Z,4.28
2022-08-11T12:17:40.082Z,3.45
2022-08-11T12:20:30.961Z,3.47
2022-08-11T12:23:15.616Z,3.63
2022-08-11T12:26:26.561Z,3.75
2022-08-11T12:28:50.730Z,4.20
2022-08-11T12:31:22.109Z,3.67
2022-08-11T12:33:50.398Z,3.38
2022-08-11T12:36:19.474Z,3.25
2022-08-11T12:38:51.222Z,3.47
2022-08-11T12:41:39.370Z,3.53
2022-08-11T12:44:29.564Z,4.05
2022-08-11T12:47:02.027Z,3.72
2022-08-11T12:49:51.316Z,3.38
2022-08-11T12:52:23.945Z,3.45
2022-08-11T12:54:58.982Z,3.47
2022-08-11T12:57:52.381Z,3.60
2022-08-11T13:00:39.017Z,3.58
2022-08-11T13:03:28.539Z,2.63
2022-08-11T13:05:57.718Z,3.03
2022-08-11T13:08:26.485Z,3.28
2022-08-11T13:11:14.695Z,3.28
2022-08-11T13:13:53.698Z,3.63
2022-08-11T13:16:25.330Z,3.13
2022-08-11T13:18:53.945Z,3.20
2022-08-11T13:21:21.903Z,3.55
2022-08-11T13:24:01.294Z,3.40
2022-08-11T13:26:43.383Z,2.92
2022-08-11T13:29:18.128Z,4.00
2022-08-11T13:31:46.087Z,3.17
2022-08-11T13:34:15.814Z,3.70
2022-08-11T13:36:44.690Z,3.53
2022-08-11T13:39:13.406Z,3.92
2022-08-11T13:41:44.214Z,3.80
2022-08-11T13:44:15.879Z,3.33
2022-08-11T13:46:46.215Z,3.80
2022-08-11T13:49:17.253Z,3.70
2022-08-11T13:51:44.952Z,3.03
2022-08-11T13:54:19.525Z,3.65
2022-08-11T13:56:51.423Z,3.38
2022-08-11T13:59:23.811Z,3.60
2022-08-11T14:02:20.053Z,3.28
2022-08-11T14:04:54.279Z,3.20
2022-08-11T14:07:24.269Z,3.20
2022-08-11T14:09:57.740Z,4.40
2022-08-11T14:12:45.007Z,3.50
2022-08-11T14:15:20.097Z,3.40
2022-08-11T14:17:52.169Z,3.30
2022-08-11T14:20:39.836Z,3.03
2022-08-11T14:23:13.629Z,3.25
2022-08-11T14:28:39.896Z,3.22
2022-08-11T14:31:09.738Z,3.30
2022-08-11T14:34:00.481Z,3.60
2022-08-11T14:36:29.040Z,3.80
2022-08-11T14:38:56.513Z,3.25
2022-08-11T14:42:11.069Z,4.32
2022-08-11T14:44:51.544Z,3.40
2022-08-11T14:47:24.295Z,3.65
2022-08-11T14:50:06.524Z,3.15
2022-08-11T14:52:44.655Z,3.90
2022-08-11T14:55:31.499Z,3.53
2022-08-11T14:57:59.291Z,3.40
2022-08-11T15:00:26.808Z,3.95
2022-08-11T15:03:14.000Z,3.10
2022-08-11T15:05:56.494Z,3.88
2022-08-11T15:08:47.773Z,3.50
2022-08-11T15:11:35.331Z,3.08
2022-08-11T15:14:05.506Z,3.83
2022-08-11T15:16:51.077Z,3.83
2022-08-11T15:19:21.260Z,3.28
2022-08-11T15:22:07.994Z,3.85
2022-08-11T15:24:36.935Z,3.38
2022-08-11T15:27:27.858Z,3.42
2022-08-11T15:30:20.966Z,3.35
2022-08-11T15:33:24.952Z,3.80
2022-08-11T15:36:11.748Z,3.53
2022-08-11T15:38:44.640Z,3.42
2022-08-11T15:41:34.027Z,3.83
2022-08-11T15:44:38.784Z,3.17
2022-08-11T15:47:14.409Z,3.40
2022-08-11T15:50:10.558Z,3.60
2022-08-11T15:52:35.717Z,3.28
2022-08-11T15:55:08.605Z,3.53
2022-08-11T15:57:56.743Z,3.47
2022-08-11T16:00:43.664Z,3.30
2022-08-11T16:04:07.208Z,3.20
2022-08-11T16:06:18.230Z,3.40
2022-08-11T16:08:46.087Z,3.47
2022-08-11T16:11:13.914Z,3.55
2022-08-11T16:13:43.259Z,3.55
2022-08-11T16:16:15.645Z,3.50
2022-08-11T16:18:47.197Z,5.05
2022-08-11T16:21:34.355Z,4.38
2022-08-11T16:24:05.216Z,3.55
2022-08-11T16:27:10.952Z,3.53
2022-08-11T16:29:25.740Z,3.72
2022-08-11T16:32:14.484Z,3.72
2022-08-11T16:35:02.769Z,3.47
2022-08-11T16:37:49.426Z,3.40
2022-08-11T16:40:17.940Z,4.00
2022-08-11T16:43:14.149Z,3.33
2022-08-11T16:46:01.388Z,3.45
2022-08-11T16:48:36.875Z,3.33
2022-08-11T16:51:06.262Z,3.40
2022-08-11T16:54:04.047Z,3.83
2022-08-11T16:56:25.019Z,2.85
2022-08-11T16:59:13.277Z,3.60
2022-08-11T17:01:43.128Z,3.70
2022-08-11T17:04:38.685Z,3.35
2022-08-11T17:07:41.643Z,3.13
2022-08-11T17:10:52.934Z,3.38
2022-08-11T17:13:32.339Z,3.20
2022-08-11T17:16:09.332Z,3.47
2022-08-11T17:18:44.028Z,3.28
2022-08-11T17:21:14.997Z,3.63
2022-08-11T17:23:50.100Z,3.10
2022-08-11T17:26:20.270Z,3.03
2022-08-11T17:28:52.338Z,2.70
2022-08-11T17:31:40.197Z,2.70
2022-08-11T17:34:27.179Z,2.65
2022-08-11T17:36:55.494Z,2.88
2022-08-11T17:39:29.270Z,2.50
2022-08-11T17:42:14.982Z,2.95
2022-08-11T17:45:01.897Z,3.00
2022-08-11T17:47:49.176Z,3.05
2022-08-11T17:50:18.615Z,3.17
2022-08-11T17:53:05.476Z,3.08
2022-08-11T17:55:53.634Z,2.90
2022-08-11T17:58:40.315Z,3.10
2022-08-11T18:01:11.157Z,2.92
2022-08-11T18:03:53.209Z,2.92
2022-08-11T18:06:34.474Z,3.10
2022-08-11T18:09:23.973Z,2.97
2022-08-11T18:12:12.989Z,3.45
2022-08-11T18:15:03.049Z,3.20
2022-08-11T18:17:48.937Z,3.30
2022-08-11T18:20:34.740Z,3.40
2022-08-11T18:23:40.503Z,2.78
2022-08-11T18:26:31.537Z,3.28
2022-08-11T18:29:19.003Z,3.25
2022-08-11T18:32:08.419Z,2.63
2022-08-11T18:34:59.119Z,5.70
2022-08-11T18:37:46.213Z,3.25
2022-08-11T18:40:38.801Z,3.28
2022-08-11T18:43:28.101Z,3.33
2022-08-11T18:46:20.280Z,2.88
2022-08-11T18:49:15.393Z,3.47
2022-08-11T18:52:05.307Z,3.72
2022-08-11T18:54:53.518Z,3.30
2022-08-11T18:57:49.906Z,3.58
2022-08-11T19:00:40.391Z,3.08
2022-08-11T19:03:27.053Z,4.00
2022-08-11T19:06:39.170Z,3.42
2022-08-11T19:09:23.821Z,4.13
2022-08-11T19:12:11.124Z,3.85
2022-08-11T19:15:00.168Z,3.60
2022-08-11T19:17:48.267Z,3.40
2022-08-11T19:20:37.019Z,3.95
2022-08-11T19:23:25.258Z,3.70
2022-08-11T19:26:11.775Z,3.35
2022-08-11T19:29:00.411Z,3.65
2022-08-11T19:31:48.154Z,3.40
2022-08-11T19:34:35.878Z,3.22
2022-08-11T19:37:25.030Z,3.25
2022-08-11T19:40:12.271Z,3.28
2022-08-11T19:42:59.594Z,3.35
2022-08-11T19:45:52.103Z,3.30
2022-08-11T19:48:40.693Z,3.78
2022-08-11T19:51:27.966Z,3.70
2022-08-11T19:54:13.794Z,3.67
2022-08-11T19:57:01.355Z,3.60
2022-08-11T19:59:49.147Z,3.00
2022-08-11T20:02:34.676Z,3.25
2022-08-11T20:05:22.516Z,3.85
2022-08-11T20:08:08.808Z,3.75
2022-08-11T20:10:56.167Z,3.47
2022-08-11T20:13:45.763Z,3.40
2022-08-11T20:16:33.543Z,3.55
2022-08-11T20:19:25.748Z,4.10
2022-08-11T20:22:29.144Z,3.22
2022-08-11T20:25:16.373Z,3.17
2022-08-11T20:28:12.074Z,3.45
2022-08-11T20:30:58.792Z,3.65
2022-08-11T20:33:44.660Z,3.42
2022-08-11T20:36:31.991Z,3.83
2022-08-11T20:39:19.940Z,3.90
2022-08-11T20:42:07.029Z,3.50
2022-08-11T20:44:55.336Z,3.95
2022-08-11T20:47:59.419Z,3.97
2022-08-11T20:50:47.571Z,4.03
2022-08-11T20:53:35.756Z,3.67
2022-08-11T20:56:28.749Z,3.33
2022-08-11T20:59:17.441Z,4.35
2022-08-11T21:02:09.993Z,3.17
2022-08-11T21:04:56.564Z,3.60
2022-08-11T21:07:50.308Z,3.58
2022-08-11T21:10:46.754Z,4.03
2022-08-11T21:13:37.193Z,4.05
2022-08-11T21:16:25.980Z,3.85
2022-08-11T21:19:19.236Z,3.92
2022-08-11T21:22:28.564Z,3.00
2022-08-11T21:25:16.392Z,4.00
2022-08-11T21:28:04.941Z,4.45
2022-08-11T21:30:57.602Z,3.85
2022-08-11T21:33:46.024Z,4.15
2022-08-11T21:36:33.171Z,3.83
2022-08-11T21:39:20.739Z,4.50
2022-08-11T21:42:11.071Z,3.72
2022-08-11T21:44:57.372Z,3.78
2022-08-11T21:47:45.852Z,3.92
2022-08-11T21:50:31.527Z,3.22
2022-08-11T21:53:18.787Z,5.20
2022-08-11T21:56:04.759Z,3.97
2022-08-11T21:58:52.074Z,3.67
2022-08-11T22:01:37.675Z,3.55
2022-08-11T22:04:24.924Z,3.53
2022-08-11T22:07:11.033Z,3.50
2022-08-11T22:09:56.972Z,4.03
2022-08-11T22:12:45.137Z,4.18
2022-08-11T22:15:31.143Z,4.00
2022-08-11T22:18:16.381Z,3.75
2022-08-11T22:21:03.651Z,4.03
2022-08-11T22:23:52.064Z,3.20
2022-08-11T22:26:41.165Z,3.63
2022-08-11T22:29:50.718Z,3.70
2022-08-11T22:32:32.281Z,3.45
2022-08-11T22:35:19.673Z,3.53
2022-08-11T22:38:07.536Z,3.20
2022-08-11T22:40:53.322Z,3.25
2022-08-11T22:43:38.616Z,3.20
2022-08-11T22:46:24.678Z,3.58
2022-08-11T22:49:11.442Z,3.60
2022-08-11T22:51:58.602Z,3.53
2022-08-11T22:54:46.312Z,3.13
2022-08-11T22:57:33.117Z,3.80
2022-08-11T23:00:20.171Z,3.55
2022-08-11T23:03:06.094Z,3.72
2022-08-11T23:05:56.821Z,3.58
2022-08-11T23:08:43.789Z,3.40
2022-08-11T23:12:06.041Z,3.60
2022-08-11T23:14:39.877Z,3.30
2022-08-11T23:17:26.791Z,3.00
2022-08-11T23:20:33.771Z,3.50
2022-08-11T23:23:19.755Z,3.00
2022-08-11T23:26:05.523Z,3.47
2022-08-11T23:28:53.069Z,4.47
2022-08-11T23:31:50.641Z,3.50
2022-08-11T23:35:03.620Z,3.70
2022-08-11T23:37:45.735Z,3.58
2022-08-11T23:40:30.821Z,3.35
2022-08-11T23:43:16.750Z,3.70
2022-08-11T23:46:03.246Z,3.40
2022-08-11T23:48:50.621Z,3.72
2022-08-11T23:51:41.252Z,3.80
2022-08-11T23:54:27.561Z,4.00
2022-08-11T23:57:13.351Z,3.58
2022-08-11T23:59:59.101Z,3.72
